createdAt,value
2024-03-14T00:00:44.523Z,47.85
2024-03-14T00:05:46.484Z,47.95
2024-03-14T00:10:52.366Z,47.72
2024-03-14T00:15:55.324Z,47.39
2024-03-14T00:20:57.094Z,47.52
2024-03-14T00:25:58.792Z,47.70
2024-03-14T00:31:00.872Z,47.84
2024-03-14T00:36:03.023Z,47.74
2024-03-14T00:41:05.005Z,47.85
2024-03-14T00:46:06.954Z,47.98
2024-03-14T00:51:11.563Z,47.93
2024-03-14T00:56:14.986Z,47.75
2024-03-14T01:01:16.770Z,47.54
2024-03-14T01:06:18.519Z,47.38
2024-03-14T01:11:20.571Z,47.57
2024-03-14T01:16:22.467Z,47.92
2024-03-14T01:21:24.288Z,47.68
2024-03-14T01:26:27.624Z,47.71
2024-03-14T01:31:30.315Z,48.20
2024-03-14T01:36:32.103Z,47.98
2024-03-14T01:41:33.907Z,48.26
2024-03-14T01:46:36.488Z,48.70
2024-03-14T01:51:38.507Z,48.37
2024-03-14T01:56:58.926Z,48.58
2024-03-14T02:02:00.913Z,48.34
2024-03-14T02:07:15.202Z,48.70
2024-03-14T02:12:17.077Z,49.05
2024-03-14T02:17:18.832Z,49.25
2024-03-14T02:22:23.679Z,49.10
2024-03-14T02:27:25.560Z,49.30
2024-03-14T02:32:27.691Z,49.74
2024-03-14T02:37:31.758Z,49.81
2024-03-14T02:42:33.650Z,49.63
2024-03-14T02:47:36.893Z,49.94
2024-03-14T02:52:39.442Z,50.08
2024-03-14T02:57:42.188Z,50.19
2024-03-14T03:02:47.104Z,50.04
2024-03-14T03:07:50.244Z,50.21
2024-03-14T03:12:52.038Z,50.78
2024-03-14T03:17:53.802Z,51.23
2024-03-14T03:23:07.907Z,52.19
2024-03-14T03:28:13.300Z,53.17
2024-03-14T03:33:19.880Z,52.95
2024-03-14T03:38:21.659Z,52.77
2024-03-14T03:43:23.589Z,52.80
2024-03-14T03:48:25.381Z,52.74
2024-03-14T03:53:27.196Z,52.65
2024-03-14T03:58:28.888Z,52.80
2024-03-14T04:03:31.261Z,52.94
2024-03-14T04:08:33.032Z,53.48
2024-03-14T04:13:35.264Z,53.33
2024-03-14T04:18:36.979Z,53.34
2024-03-14T04:23:38.687Z,53.25
2024-03-14T04:28:40.358Z,53.55
2024-03-14T04:33:42.245Z,54.31
2024-03-14T04:38:44.115Z,54.47
2024-03-14T04:43:45.988Z,54.30
2024-03-14T04:48:47.740Z,54.23
2024-03-14T04:53:49.532Z,53.90
2024-03-14T04:58:51.799Z,53.91
2024-03-14T05:03:53.517Z,54.14
2024-03-14T05:08:55.854Z,54.29
2024-03-14T05:13:58.172Z,54.57
2024-03-14T05:19:00.767Z,55.18
2024-03-14T05:24:02.543Z,55.00
2024-03-14T05:29:04.597Z,55.36
2024-03-14T05:34:08.000Z,55.20
2024-03-14T05:39:10.521Z,54.80
2024-03-14T05:44:12.343Z,55.55
2024-03-14T05:49:14.270Z,55.51
2024-03-14T05:54:16.396Z,55.68
2024-03-14T05:59:18.255Z,55.58
2024-03-14T06:04:22.662Z,56.03
2024-03-14T06:09:34.554Z,55.87
2024-03-14T06:14:37.181Z,56.03
2024-03-14T06:19:39.196Z,55.63
2024-03-14T06:24:40.928Z,55.45
2024-03-14T06:29:42.970Z,55.77
2024-03-14T06:34:45.563Z,55.84
2024-03-14T06:39:58.115Z,56.14
2024-03-14T06:45:04.697Z,56.29
2024-03-14T06:50:07.667Z,56.71
2024-03-14T06:55:11.326Z,57.44
2024-03-14T07:00:14.020Z,57.59
2024-03-14T07:05:16.930Z,57.41
2024-03-14T07:10:20.439Z,57.44
2024-03-14T07:15:23.437Z,58.10
2024-03-14T07:20:34.391Z,57.76
2024-03-14T07:25:36.254Z,58.23
2024-03-14T07:30:38.144Z,58.14
2024-03-14T07:35:46.093Z,58.62
2024-03-14T07:40:48.038Z,58.38
2024-03-14T07:45:50.166Z,58.02
2024-03-14T07:50:52.290Z,57.74
2024-03-14T07:55:54.133Z,58.06
2024-03-14T08:00:57.112Z,58.42
2024-03-14T08:06:00.509Z,58.60
2024-03-14T08:11:04.599Z,58.34
2024-03-14T08:16:09.972Z,58.45
2024-03-14T08:21:14.297Z,58.25
2024-03-14T08:26:18.717Z,58.59
2024-03-14T08:31:22.838Z,58.67
2024-03-14T08:36:24.683Z,58.65
2024-03-14T08:41:26.460Z,59.18
2024-03-14T08:46:28.153Z,59.36
2024-03-14T08:51:29.960Z,59.50
2024-03-14T08:56:31.735Z,59.86
2024-03-14T09:01:33.670Z,59.86
2024-03-14T09:06:35.931Z,59.84
2024-03-14T09:11:37.736Z,59.70
2024-03-14T09:16:39.600Z,59.22
2024-03-14T09:21:41.414Z,59.45
2024-03-14T09:26:43.642Z,59.11
2024-03-14T09:31:45.537Z,58.66
2024-03-14T09:36:51.750Z,58.47
2024-03-14T09:41:53.573Z,58.34
2024-03-14T09:47:08.231Z,58.74
2024-03-14T09:52:10.159Z,58.42
2024-03-14T09:57:13.280Z,58.00
2024-03-14T10:02:19.383Z,57.86
2024-03-14T10:07:21.570Z,58.07
2024-03-14T10:12:23.351Z,57.59
2024-03-14T10:17:26.321Z,57.51
2024-03-14T10:22:28.886Z,57.60
2024-03-14T10:27:31.081Z,57.30
2024-03-14T10:32:33.337Z,57.39
2024-03-14T10:37:36.012Z,57.45
2024-03-14T10:42:38.963Z,57.19
2024-03-14T10:47:42.688Z,57.12
2024-03-14T10:52:50.432Z,57.29
2024-03-14T10:57:52.965Z,57.61
2024-03-14T11:02:56.967Z,57.29
2024-03-14T11:08:02.608Z,57.61
2024-03-14T11:13:22.153Z,57.21
2024-03-14T11:18:34.348Z,57.19
2024-03-14T11:23:38.559Z,57.54
2024-03-14T11:28:42.700Z,57.36
2024-03-14T11:33:46.843Z,57.51
2024-03-14T11:38:48.815Z,57.74
2024-03-14T11:43:54.048Z,57.86
2024-03-14T11:48:56.265Z,57.89
2024-03-14T11:54:01.381Z,58.10
2024-03-14T11:59:03.379Z,58.26
2024-03-14T12:04:07.997Z,58.30
2024-03-14T12:09:20.953Z,58.22
2024-03-14T12:14:23.510Z,58.44
2024-03-14T12:19:27.082Z,58.65
2024-03-14T12:24:29.255Z,58.37
2024-03-14T12:29:31.596Z,58.85
2024-03-14T12:34:33.762Z,58.99
2024-03-14T12:39:36.436Z,59.15
2024-03-14T12:44:38.569Z,58.97
2024-03-14T12:49:40.320Z,58.76
2024-03-14T12:54:42.218Z,58.82
2024-03-14T12:59:48.990Z,59.18
2024-03-14T13:04:51.717Z,58.89
2024-03-14T13:10:13.816Z,58.72
2024-03-14T13:15:24.435Z,59.22
2024-03-14T13:20:30.771Z,59.08
2024-03-14T13:25:32.704Z,58.89
2024-03-14T13:30:34.761Z,59.23
2024-03-14T13:35:40.286Z,59.15
2024-03-14T13:40:42.062Z,58.74
2024-03-14T13:45:48.102Z,58.86
2024-03-14T13:50:51.709Z,58.81
2024-03-14T13:55:57.618Z,58.60
2024-03-14T14:01:01.075Z,58.50
2024-03-14T14:06:05.194Z,58.55
2024-03-14T14:11:08.424Z,58.46
2024-03-14T14:16:16.596Z,58.52
2024-03-14T14:21:18.680Z,58.14
2024-03-14T14:26:20.380Z,58.43
2024-03-14T14:31:22.892Z,58.14
2024-03-14T14:36:24.678Z,58.33
2024-03-14T14:41:26.445Z,58.36
2024-03-14T14:46:28.353Z,58.11
2024-03-14T14:51:30.196Z,57.81
2024-03-14T14:56:31.856Z,58.00
2024-03-14T15:01:34.133Z,57.97
2024-03-14T15:06:37.030Z,57.94
2024-03-14T15:11:38.999Z,57.73
2024-03-14T15:16:40.842Z,57.90
2024-03-14T15:21:42.585Z,57.82
2024-03-14T15:26:45.194Z,57.32
2024-03-14T15:31:46.956Z,57.40
2024-03-14T15:36:48.661Z,57.22
2024-03-14T15:41:51.514Z,56.89
2024-03-14T15:46:53.208Z,56.93
2024-03-14T15:51:55.929Z,56.89
2024-03-14T15:56:57.778Z,56.98
2024-03-14T16:02:01.568Z,56.78
2024-03-14T16:07:07.154Z,56.93
2024-03-14T16:12:09.666Z,57.01
2024-03-14T16:17:12.201Z,56.68
2024-03-14T16:22:14.654Z,56.59
2024-03-14T16:27:17.525Z,56.55
2024-03-14T16:32:19.231Z,56.49
2024-03-14T16:37:21.201Z,56.24
2024-03-14T16:42:25.612Z,56.38
2024-03-14T16:47:27.793Z,56.33
2024-03-14T16:52:29.689Z,56.06
2024-03-14T16:57:32.467Z,56.08
2024-03-14T17:02:34.403Z,55.88
2024-03-14T17:07:36.089Z,55.83
2024-03-14T17:12:39.726Z,55.70
2024-03-14T17:17:41.595Z,55.47
2024-03-14T17:22:47.398Z,55.59
2024-03-14T17:27:51.686Z,55.51
2024-03-14T17:32:55.124Z,55.65
2024-03-14T17:37:57.740Z,55.66
2024-03-14T17:42:59.658Z,55.67
2024-03-14T17:48:01.676Z,55.31
2024-03-14T17:53:07.045Z,55.71
2024-03-14T17:58:10.145Z,55.65
2024-03-14T18:03:12.307Z,55.75
2024-03-14T18:08:14.708Z,55.38
2024-03-14T18:13:17.386Z,55.66
2024-03-14T18:18:20.207Z,55.71
2024-03-14T18:23:22.279Z,55.76
2024-03-14T18:28:24.782Z,55.75
2024-03-14T18:33:26.742Z,55.74
2024-03-14T18:38:28.519Z,55.38
2024-03-14T18:43:30.923Z,55.32
2024-03-14T18:48:32.791Z,55.65
2024-03-14T18:53:34.590Z,55.35
2024-03-14T18:58:36.547Z,56.19
2024-03-14T19:03:39.569Z,55.77
2024-03-14T19:08:41.428Z,55.81
2024-03-14T19:13:45.547Z,55.71
2024-03-14T19:18:47.534Z,55.58
2024-03-14T19:23:49.656Z,55.71
2024-03-14T19:28:53.159Z,55.35
2024-03-14T19:33:54.900Z,55.25
2024-03-14T19:38:59.187Z,55.11
2024-03-14T19:44:03.394Z,55.32
2024-03-14T19:49:05.764Z,55.03
2024-03-14T19:54:07.917Z,54.94
2024-03-14T19:59:09.719Z,55.34
2024-03-14T20:04:11.920Z,55.10
2024-03-14T20:09:14.872Z,55.02
2024-03-14T20:14:16.692Z,54.83
2024-03-14T20:19:19.606Z,54.84
2024-03-14T20:24:22.045Z,55.03
2024-03-14T20:29:24.931Z,54.87
2024-03-14T20:34:28.133Z,55.15
2024-03-14T20:39:42.153Z,55.18
2024-03-14T20:44:45.848Z,55.18
2024-03-14T20:49:47.969Z,55.39
2024-03-14T20:55:08.126Z,55.64
2024-03-14T21:00:25.340Z,55.83
2024-03-14T21:05:27.589Z,55.64
2024-03-14T21:10:35.237Z,55.16
2024-03-14T21:15:39.922Z,54.95
2024-03-14T21:20:43.331Z,54.93
2024-03-14T21:25:49.027Z,54.66
2024-03-14T21:30:53.082Z,54.78
2024-03-14T21:35:54.982Z,54.91
2024-03-14T21:40:57.373Z,54.85
2024-03-14T21:45:59.519Z,54.69
2024-03-14T21:51:02.181Z,54.51
2024-03-14T21:56:04.557Z,54.59
2024-03-14T22:01:07.273Z,54.76
2024-03-14T22:06:09.413Z,54.51
2024-03-14T22:11:13.375Z,54.59
2024-03-14T22:16:15.442Z,54.59
2024-03-14T22:21:17.259Z,54.63
2024-03-14T22:26:19.192Z,54.64
2024-03-14T22:31:21.056Z,54.63
2024-03-14T22:36:22.960Z,54.64
2024-03-14T22:41:26.261Z,54.60
2024-03-14T22:46:27.957Z,54.57
2024-03-14T22:51:29.903Z,54.76
2024-03-14T22:56:31.663Z,54.73
2024-03-14T23:01:38.636Z,54.61
2024-03-14T23:06:41.757Z,54.73
2024-03-14T23:11:44.101Z,54.65
2024-03-14T23:16:46.787Z,54.87
2024-03-14T23:21:49.875Z,55.14
2024-03-14T23:26:51.760Z,54.91
2024-03-14T23:31:53.657Z,55.00
2024-03-14T23:36:55.360Z,54.97
2024-03-14T23:41:57.664Z,54.91
2024-03-14T23:47:00.802Z,55.44
2024-03-14T23:52:02.515Z,55.59
2024-03-14T23:57:04.764Z,55.44
